createdAt,value
2023-01-31T00:02:10.869Z,3.00
2023-01-31T00:04:37.431Z,2.90
2023-01-31T00:07:03.977Z,3.00
2023-01-31T00:09:30.496Z,3.00
2023-01-31T00:11:57.067Z,3.00
2023-01-31T00:16:59.345Z,3.10
2023-01-31T00:19:25.888Z,3.00
2023-01-31T00:21:53.565Z,3.00
2023-01-31T00:24:20.123Z,2.90
2023-01-31T00:26:48.529Z,2.90
2023-01-31T00:29:15.133Z,2.80
2023-01-31T00:31:41.816Z,2.70
2023-01-31T00:34:08.607Z,2.70
2023-01-31T00:36:35.890Z,2.60
2023-01-31T00:39:03.834Z,2.60
2023-01-31T00:41:30.911Z,2.50
2023-01-31T00:43:57.838Z,2.40
2023-01-31T00:46:24.504Z,2.30
2023-01-31T00:48:51.064Z,2.20
2023-01-31T00:51:18.169Z,2.10
2023-01-31T00:53:45.032Z,2.10
2023-01-31T00:56:13.228Z,2.10
2023-01-31T00:58:40.068Z,2.10
2023-01-31T01:01:14.115Z,2.10
2023-01-31T01:03:41.569Z,2.20
2023-01-31T01:06:08.495Z,2.20
2023-01-31T01:08:35.798Z,2.20
2023-01-31T01:11:09.229Z,2.30
2023-01-31T01:13:36.475Z,2.30
2023-01-31T01:16:04.616Z,2.30
2023-01-31T01:18:31.470Z,2.40
2023-01-31T01:21:04.294Z,2.40
2023-01-31T01:23:30.816Z,2.40
2023-01-31T01:25:57.294Z,2.40
2023-01-31T01:28:23.781Z,2.50
2023-01-31T01:30:50.374Z,2.50
2023-01-31T01:33:16.915Z,2.50
2023-01-31T01:35:43.968Z,2.50
2023-01-31T01:38:10.756Z,2.50
2023-01-31T01:40:37.767Z,2.50
2023-01-31T01:43:04.571Z,2.50
2023-01-31T01:45:31.680Z,2.40
2023-01-31T01:48:00.995Z,2.50
2023-01-31T01:50:32.826Z,2.40
2023-01-31T01:53:04.603Z,2.40
2023-01-31T01:55:36.363Z,2.40
2023-01-31T01:58:06.171Z,2.40
2023-01-31T02:00:33.661Z,2.50
2023-01-31T02:03:01.692Z,2.50
2023-01-31T02:05:33.265Z,2.50
2023-01-31T02:08:01.106Z,2.40
2023-01-31T02:10:30.191Z,2.50
2023-01-31T02:12:56.775Z,2.50
2023-01-31T02:15:23.680Z,2.50
2023-01-31T02:17:50.351Z,2.40
2023-01-31T02:20:35.804Z,2.50
2023-01-31T02:23:13.090Z,2.50
2023-01-31T02:25:57.558Z,2.40
2023-01-31T02:28:42.951Z,2.40
2023-01-31T02:31:21.838Z,2.40
2023-01-31T02:33:54.097Z,2.40
2023-01-31T02:36:29.547Z,2.40
2023-01-31T02:38:56.304Z,2.40
2023-01-31T02:41:32.062Z,2.40
2023-01-31T02:44:40.354Z,2.40
2023-01-31T02:47:19.427Z,2.40
2023-01-31T02:49:56.077Z,2.40
2023-01-31T02:52:31.714Z,2.40
2023-01-31T02:55:27.858Z,2.30
2023-01-31T02:57:55.851Z,2.40
2023-01-31T03:00:23.090Z,2.40
2023-01-31T03:02:49.750Z,2.40
2023-01-31T03:05:17.311Z,2.40
2023-01-31T03:07:48.289Z,2.40
2023-01-31T03:10:20.024Z,2.40
2023-01-31T03:13:12.941Z,2.40
2023-01-31T03:16:14.353Z,2.40
2023-01-31T03:18:49.815Z,2.40
2023-01-31T03:21:18.531Z,2.40
2023-01-31T03:23:47.278Z,2.40
2023-01-31T03:26:15.471Z,2.40
2023-01-31T03:28:42.526Z,2.40
2023-01-31T03:31:20.085Z,2.50
2023-01-31T03:33:52.204Z,2.40
2023-01-31T03:36:37.142Z,2.50
2023-01-31T03:39:13.672Z,2.50
2023-01-31T03:41:47.106Z,2.50
2023-01-31T03:44:32.481Z,2.50
2023-01-31T03:47:02.022Z,2.50
2023-01-31T03:49:29.279Z,2.50
2023-01-31T03:51:59.490Z,2.50
2023-01-31T03:54:28.245Z,2.50
2023-01-31T03:57:03.758Z,2.50
2023-01-31T03:59:34.712Z,2.60
2023-01-31T04:02:05.047Z,2.60
2023-01-31T04:04:35.323Z,2.60
2023-01-31T04:07:01.891Z,2.60
2023-01-31T04:09:28.475Z,2.50
2023-01-31T04:11:59.000Z,2.60
2023-01-31T04:14:25.501Z,2.60
2023-01-31T04:16:52.003Z,2.70
2023-01-31T04:19:18.541Z,2.70
2023-01-31T04:21:45.149Z,2.80
2023-01-31T04:24:11.943Z,2.80
2023-01-31T04:26:38.777Z,2.70
2023-01-31T04:29:05.307Z,2.80
2023-01-31T04:31:32.520Z,2.80
2023-01-31T04:33:59.761Z,2.80
2023-01-31T04:36:26.603Z,2.80
2023-01-31T04:38:53.266Z,2.80
2023-01-31T04:41:19.758Z,2.80
2023-01-31T04:43:46.330Z,2.70
2023-01-31T04:46:12.825Z,2.70
2023-01-31T04:48:41.289Z,2.70
2023-01-31T04:51:08.496Z,2.60
2023-01-31T04:53:35.143Z,2.70
2023-01-31T04:56:01.995Z,2.70
2023-01-31T04:58:28.808Z,2.60
2023-01-31T05:00:55.604Z,2.60
2023-01-31T05:03:22.155Z,2.60
2023-01-31T05:05:49.076Z,2.60
2023-01-31T05:08:15.634Z,2.60
2023-01-31T05:10:42.999Z,2.50
2023-01-31T05:13:09.979Z,2.40
2023-01-31T05:15:36.493Z,2.40
2023-01-31T05:18:03.377Z,2.30
2023-01-31T05:20:31.473Z,2.20
2023-01-31T05:22:58.379Z,2.20
2023-01-31T05:25:25.371Z,2.10
2023-01-31T05:27:52.679Z,2.30
2023-01-31T05:30:19.437Z,2.20
2023-01-31T05:32:46.718Z,2.30
2023-01-31T05:35:13.247Z,2.30
2023-01-31T05:37:42.614Z,2.30
2023-01-31T05:40:10.499Z,2.30
2023-01-31T05:42:37.010Z,2.30
2023-01-31T05:45:03.762Z,2.40
2023-01-31T05:47:30.398Z,2.40
2023-01-31T05:49:56.976Z,2.40
2023-01-31T05:52:23.464Z,2.40
2023-01-31T05:54:49.951Z,2.40
2023-01-31T05:57:16.641Z,2.40
2023-01-31T05:59:43.130Z,2.40
2023-01-31T06:02:11.360Z,2.40
2023-01-31T06:04:38.086Z,2.30
2023-01-31T06:07:04.692Z,2.30
2023-01-31T06:09:31.212Z,2.40
2023-01-31T06:11:57.748Z,2.40
2023-01-31T06:14:24.297Z,2.40
2023-01-31T06:16:50.841Z,2.50
2023-01-31T06:19:17.399Z,2.40
2023-01-31T06:21:43.994Z,2.50
2023-01-31T06:24:10.496Z,2.50
2023-01-31T06:26:37.040Z,2.40
2023-01-31T06:29:03.680Z,2.40
2023-01-31T06:31:30.848Z,2.50
2023-01-31T06:33:58.835Z,2.50
2023-01-31T06:36:25.363Z,2.50
2023-01-31T06:38:52.321Z,2.50
2023-01-31T06:41:19.698Z,2.50
2023-01-31T06:43:46.350Z,2.50
2023-01-31T06:46:12.948Z,2.50
2023-01-31T06:48:39.516Z,2.60
2023-01-31T06:51:06.169Z,2.60
2023-01-31T06:53:32.832Z,2.60
2023-01-31T06:55:59.335Z,2.60
2023-01-31T06:58:26.051Z,2.70
2023-01-31T07:00:52.544Z,2.70
2023-01-31T07:03:19.511Z,2.80
2023-01-31T07:05:46.597Z,2.80
2023-01-31T07:08:14.507Z,2.80
2023-01-31T07:10:41.038Z,2.80
2023-01-31T07:13:07.626Z,2.80
2023-01-31T07:15:34.134Z,2.80
2023-01-31T07:18:00.788Z,2.80
2023-01-31T07:20:27.368Z,2.90
2023-01-31T07:22:56.574Z,2.90
2023-01-31T07:25:23.457Z,3.00
2023-01-31T07:27:49.962Z,3.00
2023-01-31T07:30:16.583Z,3.00
2023-01-31T07:32:43.157Z,3.10
2023-01-31T07:35:09.873Z,3.00
2023-01-31T07:37:36.453Z,3.10
2023-01-31T07:40:02.993Z,3.10
2023-01-31T07:42:29.921Z,3.10
2023-01-31T07:44:56.529Z,3.10
2023-01-31T07:47:23.179Z,3.10
2023-01-31T07:49:50.506Z,3.10
2023-01-31T07:52:17.027Z,3.10
2023-01-31T07:54:43.623Z,3.10
2023-01-31T07:57:10.184Z,3.10
2023-01-31T07:59:36.710Z,3.10
2023-01-31T08:02:22.179Z,3.00
2023-01-31T08:04:48.812Z,3.00
2023-01-31T08:07:15.412Z,3.00
2023-01-31T08:09:43.488Z,3.00
2023-01-31T08:12:09.983Z,3.00
2023-01-31T08:14:36.667Z,2.90
2023-01-31T08:17:03.245Z,2.90
2023-01-31T08:19:30.553Z,2.90
2023-01-31T08:21:57.137Z,3.00
2023-01-31T08:24:23.676Z,2.90
2023-01-31T08:26:50.217Z,3.00
2023-01-31T08:29:17.150Z,3.00
2023-01-31T08:31:44.172Z,3.10
2023-01-31T08:34:10.778Z,3.10
2023-01-31T08:36:37.371Z,3.10
2023-01-31T08:39:04.435Z,3.20
2023-01-31T08:41:31.964Z,3.20
2023-01-31T08:43:59.791Z,3.20
2023-01-31T08:46:27.929Z,3.30
2023-01-31T08:48:54.519Z,3.40
2023-01-31T08:51:21.388Z,3.50
2023-01-31T08:53:48.985Z,3.50
2023-01-31T08:56:15.947Z,3.50
2023-01-31T09:01:35.581Z,3.60
2023-01-31T09:04:02.213Z,3.70
2023-01-31T09:06:29.136Z,3.70
2023-01-31T09:08:56.751Z,3.80
2023-01-31T09:11:23.310Z,3.80
2023-01-31T09:13:51.577Z,3.90
2023-01-31T09:16:19.182Z,4.00
2023-01-31T09:18:45.704Z,4.00
2023-01-31T09:21:13.774Z,4.00
2023-01-31T09:23:42.535Z,4.00
2023-01-31T09:26:10.588Z,4.00
2023-01-31T09:28:37.843Z,4.00
2023-01-31T09:31:05.496Z,4.00
2023-01-31T09:33:33.360Z,4.10
2023-01-31T09:36:01.454Z,4.10
2023-01-31T09:38:28.641Z,4.20
2023-01-31T09:40:56.104Z,4.20
2023-01-31T09:43:24.271Z,4.20
2023-01-31T09:45:53.231Z,4.20
2023-01-31T09:48:25.732Z,4.30
2023-01-31T09:50:56.346Z,4.30
2023-01-31T09:53:24.085Z,4.40
2023-01-31T09:55:53.725Z,4.40
2023-01-31T09:58:49.576Z,4.40
2023-01-31T10:01:36.246Z,4.40
2023-01-31T10:04:14.797Z,4.40
2023-01-31T10:06:45.509Z,4.40
2023-01-31T10:09:19.746Z,4.40
2023-01-31T10:11:52.299Z,4.50
2023-01-31T10:14:47.737Z,4.50
2023-01-31T10:17:14.317Z,4.60
2023-01-31T10:19:43.895Z,4.60
2023-01-31T10:22:12.434Z,4.60
2023-01-31T10:24:41.252Z,4.60
2023-01-31T10:27:26.541Z,4.60
2023-01-31T10:29:54.418Z,4.60
2023-01-31T10:32:27.060Z,4.70
2023-01-31T10:34:57.170Z,4.70
2023-01-31T10:37:31.266Z,4.70
2023-01-31T10:40:04.336Z,4.80
2023-01-31T10:42:38.619Z,4.90
2023-01-31T10:45:08.336Z,4.90
2023-01-31T10:47:36.078Z,4.90
2023-01-31T10:50:13.901Z,5.00
2023-01-31T10:52:49.834Z,5.00
2023-01-31T10:55:36.207Z,5.00
2023-01-31T10:58:02.900Z,5.10
2023-01-31T11:00:31.734Z,5.10
2023-01-31T11:02:58.869Z,5.10
2023-01-31T11:05:26.771Z,5.00
2023-01-31T11:07:53.788Z,4.90
2023-01-31T11:10:22.477Z,4.80
2023-01-31T11:12:53.580Z,4.80
2023-01-31T11:15:22.341Z,4.80
2023-01-31T11:17:49.804Z,4.70
2023-01-31T11:20:22.346Z,4.70
2023-01-31T11:22:49.312Z,4.70
2023-01-31T11:25:21.435Z,4.70
2023-01-31T11:27:48.464Z,4.80
2023-01-31T11:30:32.657Z,4.70
2023-01-31T11:32:59.343Z,4.70
2023-01-31T11:35:27.948Z,4.80
2023-01-31T11:37:56.251Z,4.80
2023-01-31T11:40:30.463Z,4.80
2023-01-31T11:43:01.603Z,4.70
2023-01-31T11:45:32.398Z,4.60
2023-01-31T11:48:05.104Z,4.50
2023-01-31T11:50:37.543Z,4.50
2023-01-31T11:53:13.713Z,4.60
2023-01-31T11:55:40.601Z,4.60
2023-01-31T11:58:13.455Z,4.70
2023-01-31T12:00:44.345Z,4.70
2023-01-31T12:03:15.292Z,4.60
2023-01-31T12:05:43.703Z,4.60
2023-01-31T12:08:30.232Z,4.50
2023-01-31T12:10:57.784Z,4.50
2023-01-31T12:13:24.566Z,4.40
2023-01-31T12:15:55.389Z,4.40
2023-01-31T12:18:29.766Z,4.30
2023-01-31T12:21:05.911Z,4.30
2023-01-31T12:23:39.236Z,4.30
2023-01-31T12:26:16.541Z,4.30
2023-01-31T12:28:43.553Z,4.20
2023-01-31T12:31:36.462Z,4.10
2023-01-31T12:34:18.791Z,4.20
2023-01-31T12:36:53.025Z,4.10
2023-01-31T12:39:28.917Z,4.10
2023-01-31T12:42:24.923Z,4.00
2023-01-31T12:44:55.445Z,3.90
2023-01-31T12:47:34.063Z,3.90
2023-01-31T12:50:12.022Z,3.80
2023-01-31T12:52:47.518Z,3.80
2023-01-31T12:55:24.192Z,3.70
2023-01-31T12:57:56.892Z,3.70
2023-01-31T13:00:32.118Z,3.70
2023-01-31T13:03:09.112Z,3.70
2023-01-31T13:05:51.533Z,3.70
2023-01-31T13:08:18.138Z,3.80
2023-01-31T13:11:03.184Z,3.90
2023-01-31T13:13:33.225Z,3.90
2023-01-31T13:16:11.685Z,3.90
2023-01-31T13:18:38.763Z,4.00
2023-01-31T13:21:07.238Z,4.10
2023-01-31T13:23:36.957Z,4.10
2023-01-31T13:26:09.806Z,4.10
2023-01-31T13:28:40.539Z,4.10
2023-01-31T13:31:14.072Z,4.10
2023-01-31T13:33:46.472Z,3.90
2023-01-31T13:36:19.071Z,4.00
2023-01-31T13:38:46.404Z,3.90
2023-01-31T13:41:19.150Z,4.00
2023-01-31T13:43:45.780Z,3.90
2023-01-31T13:46:13.392Z,3.90
2023-01-31T13:48:46.396Z,3.90
2023-01-31T13:51:17.868Z,3.80
2023-01-31T13:53:47.082Z,3.80
2023-01-31T13:56:18.288Z,3.70
2023-01-31T13:58:47.570Z,3.60
2023-01-31T14:01:25.045Z,3.60
2023-01-31T14:04:10.520Z,3.60
2023-01-31T14:06:52.349Z,3.60
2023-01-31T14:09:31.034Z,3.60
2023-01-31T14:12:01.972Z,3.60
2023-01-31T14:17:29.502Z,3.60
2023-01-31T14:19:56.704Z,3.60
2023-01-31T14:22:35.163Z,3.70
2023-01-31T14:25:04.131Z,3.70
2023-01-31T14:27:33.722Z,3.70
2023-01-31T14:30:00.227Z,3.70
2023-01-31T14:32:32.809Z,3.70
2023-01-31T14:35:02.280Z,3.60
2023-01-31T14:37:42.516Z,3.60
2023-01-31T14:40:15.006Z,3.60
2023-01-31T14:42:50.741Z,3.60
2023-01-31T14:45:32.720Z,3.60
2023-01-31T14:48:13.289Z,3.60
2023-01-31T14:50:58.790Z,3.50
2023-01-31T14:53:35.302Z,3.40
2023-01-31T14:56:19.629Z,3.40
2023-01-31T14:58:49.328Z,3.30
2023-01-31T15:01:19.433Z,3.30
2023-01-31T15:03:56.378Z,3.40
2023-01-31T15:06:30.570Z,3.30
2023-01-31T15:09:17.126Z,3.30
2023-01-31T15:11:47.972Z,3.30
2023-01-31T15:14:33.430Z,3.30
2023-01-31T15:17:07.013Z,3.30
2023-01-31T15:19:41.295Z,3.20
2023-01-31T15:22:09.381Z,3.20
2023-01-31T15:24:40.128Z,3.20
2023-01-31T15:27:09.829Z,3.20
2023-01-31T15:29:51.629Z,3.20
2023-01-31T15:32:26.510Z,3.20
2023-01-31T15:34:59.222Z,3.30
2023-01-31T15:37:29.285Z,3.30
2023-01-31T15:40:02.781Z,3.20
2023-01-31T15:42:30.856Z,3.20
2023-01-31T15:45:16.537Z,3.10
2023-01-31T15:47:43.756Z,3.10
2023-01-31T15:50:17.189Z,3.10
2023-01-31T15:52:43.852Z,3.10
2023-01-31T15:55:12.912Z,3.10
2023-01-31T15:57:56.664Z,3.10
2023-01-31T16:00:26.512Z,3.10
2023-01-31T16:03:02.491Z,3.10
2023-01-31T16:05:30.920Z,3.20
2023-01-31T16:07:59.051Z,3.20
2023-01-31T16:10:27.639Z,3.20
2023-01-31T16:12:54.949Z,3.20
2023-01-31T16:15:29.451Z,3.20
2023-01-31T16:17:57.578Z,3.20
2023-01-31T16:20:33.125Z,3.10
2023-01-31T16:22:59.789Z,3.20
2023-01-31T16:25:26.396Z,3.10
2023-01-31T16:27:52.896Z,3.10
2023-01-31T16:30:19.770Z,3.20
2023-01-31T16:32:51.288Z,3.20
2023-01-31T16:35:24.872Z,3.20
2023-01-31T16:38:02.261Z,3.10
2023-01-31T16:40:30.273Z,3.10
2023-01-31T16:43:15.490Z,3.20
2023-01-31T16:45:50.149Z,3.20
2023-01-31T16:48:22.184Z,3.30
2023-01-31T16:50:49.743Z,3.30
2023-01-31T16:53:17.975Z,3.40
2023-01-31T16:55:45.074Z,3.40
2023-01-31T16:58:12.208Z,3.40
2023-01-31T17:00:39.319Z,3.40
2023-01-31T17:03:13.109Z,3.40
2023-01-31T17:05:41.267Z,3.40
2023-01-31T17:08:15.340Z,3.40
2023-01-31T17:10:42.103Z,3.40
2023-01-31T17:13:25.371Z,3.50
2023-01-31T17:15:54.740Z,3.50
2023-01-31T17:18:22.801Z,3.50
2023-01-31T17:20:50.944Z,3.50
2023-01-31T17:23:17.904Z,3.50
2023-01-31T17:25:45.148Z,3.60
2023-01-31T17:28:11.800Z,3.60
2023-01-31T17:30:39.803Z,3.60
2023-01-31T17:33:06.445Z,3.60
2023-01-31T17:35:37.405Z,3.60
2023-01-31T17:38:04.053Z,3.50
2023-01-31T17:40:30.619Z,3.60
2023-01-31T17:42:58.694Z,3.60
2023-01-31T17:45:25.577Z,3.50
2023-01-31T17:47:52.190Z,3.60
2023-01-31T17:50:21.688Z,3.60
2023-01-31T17:52:48.607Z,3.60
2023-01-31T17:55:15.472Z,3.70
2023-01-31T17:57:42.317Z,3.70
2023-01-31T18:00:11.312Z,3.70
2023-01-31T18:02:38.032Z,3.70
2023-01-31T18:05:04.894Z,3.70
2023-01-31T18:07:31.402Z,3.70
2023-01-31T18:09:57.904Z,3.70
2023-01-31T18:12:24.440Z,3.80
2023-01-31T18:14:51.014Z,3.80
2023-01-31T18:17:19.823Z,3.80
2023-01-31T18:19:46.511Z,3.80
2023-01-31T18:22:13.095Z,3.70
2023-01-31T18:24:40.646Z,3.80
2023-01-31T18:27:07.317Z,3.70
2023-01-31T18:29:33.939Z,3.70
2023-01-31T18:32:02.763Z,3.80
2023-01-31T18:34:29.745Z,3.70
2023-01-31T18:36:56.388Z,3.70
2023-01-31T18:39:23.659Z,3.70
2023-01-31T18:41:50.708Z,3.70
2023-01-31T18:44:17.258Z,3.80
2023-01-31T18:46:45.917Z,3.80
2023-01-31T18:49:13.004Z,3.80
2023-01-31T18:51:41.431Z,3.80
2023-01-31T18:54:08.724Z,3.80
2023-01-31T18:56:35.354Z,3.80
2023-01-31T18:59:01.863Z,3.90
2023-01-31T19:01:31.466Z,3.90
2023-01-31T19:03:58.551Z,3.80
2023-01-31T19:06:26.942Z,3.80
2023-01-31T19:08:54.346Z,3.80
2023-01-31T19:11:21.872Z,3.80
2023-01-31T19:13:48.421Z,3.80
2023-01-31T19:16:20.075Z,3.90
2023-01-31T19:18:47.035Z,3.90
2023-01-31T19:21:19.441Z,3.90
2023-01-31T19:23:46.453Z,3.90
2023-01-31T19:26:14.778Z,3.90
2023-01-31T19:28:41.851Z,3.90
2023-01-31T19:31:11.142Z,3.90
2023-01-31T19:33:38.275Z,3.90
2023-01-31T19:36:08.851Z,3.90
2023-01-31T19:38:35.496Z,3.90
2023-01-31T19:41:09.249Z,4.00
2023-01-31T19:43:35.919Z,3.90
2023-01-31T19:46:02.499Z,4.00
2023-01-31T19:48:29.035Z,4.00
2023-01-31T19:50:55.994Z,4.00
2023-01-31T19:53:22.641Z,4.00
2023-01-31T19:55:49.600Z,3.90
2023-01-31T19:58:16.202Z,3.90
2023-01-31T20:00:43.083Z,3.90
2023-01-31T20:03:10.745Z,3.90
2023-01-31T20:05:37.309Z,3.90
2023-01-31T20:08:03.881Z,3.90
2023-01-31T20:10:31.162Z,4.00
2023-01-31T20:12:58.956Z,4.00
2023-01-31T20:15:25.501Z,4.00
2023-01-31T20:17:53.110Z,4.00
2023-01-31T20:20:20.210Z,4.00
2023-01-31T20:22:47.122Z,3.90
2023-01-31T20:25:13.654Z,4.00
2023-01-31T20:27:40.189Z,4.10
2023-01-31T20:30:06.960Z,4.00
2023-01-31T20:32:33.599Z,4.10
2023-01-31T20:35:01.589Z,4.10
2023-01-31T20:37:28.738Z,4.10
2023-01-31T20:39:55.356Z,4.10
2023-01-31T20:42:22.133Z,4.10
2023-01-31T20:44:48.678Z,4.00
2023-01-31T20:47:15.231Z,4.10
2023-01-31T20:49:42.272Z,4.10
2023-01-31T20:52:08.783Z,4.20
2023-01-31T20:54:35.349Z,4.20
2023-01-31T20:57:01.867Z,4.20
2023-01-31T20:59:28.446Z,4.20
2023-01-31T21:01:54.977Z,4.10
2023-01-31T21:04:21.478Z,4.10
2023-01-31T21:06:48.020Z,4.10
2023-01-31T21:09:15.613Z,4.10
2023-01-31T21:11:42.212Z,4.10
2023-01-31T21:14:08.777Z,4.20
2023-01-31T21:16:35.703Z,4.20
2023-01-31T21:19:02.237Z,4.20
2023-01-31T21:21:28.755Z,4.20
2023-01-31T21:23:56.987Z,4.20
2023-01-31T21:26:26.626Z,4.20
2023-01-31T21:28:53.452Z,4.20
2023-01-31T21:31:20.701Z,4.20
2023-01-31T21:33:48.750Z,4.20
2023-01-31T21:36:16.491Z,4.10
2023-01-31T21:38:43.418Z,4.10
2023-01-31T21:41:28.676Z,4.20
2023-01-31T21:43:55.845Z,4.10
2023-01-31T21:46:22.421Z,4.10
2023-01-31T21:48:49.319Z,4.20
2023-01-31T21:51:16.671Z,4.20
2023-01-31T21:53:43.493Z,4.30
2023-01-31T21:56:11.317Z,4.30
2023-01-31T21:58:38.416Z,4.30
2023-01-31T22:01:12.688Z,4.40
2023-01-31T22:03:40.218Z,4.30
2023-01-31T22:06:07.921Z,4.40
2023-01-31T22:08:34.686Z,4.40
2023-01-31T22:11:02.066Z,4.40
2023-01-31T22:13:28.657Z,4.40
2023-01-31T22:15:59.463Z,4.30
2023-01-31T22:18:26.106Z,4.40
2023-01-31T22:20:52.591Z,4.30
2023-01-31T22:23:19.139Z,4.40
2023-01-31T22:25:45.752Z,4.40
2023-01-31T22:28:12.247Z,4.50
2023-01-31T22:30:38.835Z,4.40
2023-01-31T22:33:05.467Z,4.40
2023-01-31T22:35:32.067Z,4.50
2023-01-31T22:37:58.640Z,4.40
2023-01-31T22:40:25.148Z,4.50
2023-01-31T22:42:51.660Z,4.40
2023-01-31T22:45:18.160Z,4.50
2023-01-31T22:47:44.670Z,4.50
2023-01-31T22:50:11.192Z,4.50
2023-01-31T22:52:37.677Z,4.40
2023-01-31T22:55:04.312Z,4.40
2023-01-31T22:57:30.887Z,4.40
2023-01-31T22:59:57.415Z,4.40
2023-01-31T23:02:23.911Z,4.50
2023-01-31T23:04:52.072Z,4.40
2023-01-31T23:07:19.197Z,4.50
2023-01-31T23:09:45.706Z,4.50
2023-01-31T23:12:12.214Z,4.50
2023-01-31T23:14:38.722Z,4.50
2023-01-31T23:17:23.916Z,4.40
2023-01-31T23:19:50.601Z,4.40
2023-01-31T23:22:17.156Z,4.50
2023-01-31T23:24:43.674Z,4.40
2023-01-31T23:27:10.178Z,4.50
2023-01-31T23:29:36.727Z,4.50
2023-01-31T23:32:03.451Z,4.50
2023-01-31T23:34:29.988Z,4.40
2023-01-31T23:36:56.702Z,4.40
2023-01-31T23:39:23.222Z,4.40
2023-01-31T23:41:49.719Z,4.40
2023-01-31T23:44:16.208Z,4.50
2023-01-31T23:46:42.842Z,4.50
2023-01-31T23:49:09.368Z,4.50
2023-01-31T23:51:36.014Z,4.40
2023-01-31T23:54:02.581Z,4.40
2023-01-31T23:56:29.127Z,4.50
2023-01-31T23:58:55.685Z,4.50
